createdAt,value
2023-04-04T00:00:43.481Z,6.94
2023-04-04T00:03:18.332Z,6.89
2023-04-04T00:05:48.787Z,6.79
2023-04-04T00:08:18.187Z,6.73
2023-04-04T00:11:00.587Z,6.72
2023-04-04T00:13:36.246Z,6.74
2023-04-04T00:16:12.587Z,6.74
2023-04-04T00:18:42.428Z,6.74
2023-04-04T00:21:15.774Z,6.70
2023-04-04T00:23:46.246Z,6.62
2023-04-04T00:26:23.448Z,6.55
2023-04-04T00:28:51.351Z,6.54
2023-04-04T00:31:27.546Z,6.57
2023-04-04T00:33:56.110Z,6.59
2023-04-04T00:36:26.815Z,6.60
2023-04-04T00:38:58.140Z,6.61
2023-04-04T00:41:27.675Z,6.58
2023-04-04T00:43:58.898Z,6.55
2023-04-04T00:46:28.200Z,6.51
2023-04-04T00:48:57.447Z,6.48
2023-04-04T00:51:29.797Z,6.49
2023-04-04T00:54:05.554Z,6.48
2023-04-04T00:56:36.404Z,6.48
2023-04-04T00:59:09.681Z,6.50
2023-04-04T01:01:44.897Z,6.50
2023-04-04T01:04:16.746Z,6.49
2023-04-04T01:06:46.770Z,6.47
2023-04-04T01:09:20.422Z,6.46
2023-04-04T01:11:52.577Z,6.46
2023-04-04T01:14:26.781Z,6.48
2023-04-04T01:16:57.892Z,6.49
2023-04-04T01:19:37.823Z,6.51
2023-04-04T01:22:14.241Z,6.52
2023-04-04T01:24:45.100Z,6.54
2023-04-04T01:29:12.354Z,6.36
2023-04-04T01:31:48.488Z,6.50
2023-04-04T01:34:28.024Z,6.45
2023-04-04T01:37:01.662Z,6.40
2023-04-04T01:39:51.163Z,6.33
2023-04-04T01:42:44.803Z,6.28
2023-04-04T01:45:17.903Z,6.27
2023-04-04T01:47:48.479Z,6.24
2023-04-04T01:50:42.011Z,6.24
2023-04-04T01:53:12.853Z,6.27
2023-04-04T01:55:45.204Z,6.28
2023-04-04T01:58:15.335Z,6.28
2023-04-04T02:00:46.406Z,6.27
2023-04-04T02:03:28.150Z,6.28
2023-04-04T02:05:58.555Z,6.29
2023-04-04T02:08:30.690Z,6.28
2023-04-04T02:11:05.145Z,6.27
2023-04-04T02:13:38.151Z,6.25
2023-04-04T02:16:16.150Z,6.22
2023-04-04T02:18:45.543Z,6.19
2023-04-04T02:21:16.622Z,6.18
2023-04-04T02:23:47.333Z,6.18
2023-04-04T02:26:15.594Z,6.16
2023-04-04T02:28:49.884Z,6.17
2023-04-04T02:31:19.541Z,6.16
2023-04-04T02:33:49.736Z,6.15
2023-04-04T02:36:20.922Z,6.15
2023-04-04T02:38:51.493Z,6.13
2023-04-04T02:41:25.891Z,6.11
2023-04-04T02:44:01.737Z,6.12
2023-04-04T02:53:03.120Z,6.04
2023-04-04T02:55:38.194Z,5.99
2023-04-04T02:58:16.618Z,5.97
2023-04-04T03:00:56.615Z,5.95
2023-04-04T03:03:36.467Z,5.96
2023-04-04T03:06:07.845Z,5.94
2023-04-04T03:08:39.304Z,5.86
2023-04-04T03:11:12.131Z,5.75
2023-04-04T03:13:44.516Z,5.69
2023-04-04T03:16:17.784Z,5.64
2023-04-04T03:18:57.492Z,5.62
2023-04-04T03:21:29.654Z,5.65
2023-04-04T03:24:00.739Z,5.69
2023-04-04T03:26:38.014Z,5.73
2023-04-04T03:29:12.045Z,5.70
2023-04-04T03:31:44.800Z,5.69
2023-04-04T03:34:15.324Z,5.72
2023-04-04T03:36:50.635Z,5.71
2023-04-04T03:39:23.891Z,5.71
2023-04-04T03:41:56.883Z,5.69
2023-04-04T03:44:31.261Z,5.69
2023-04-04T03:47:07.201Z,5.71
2023-04-04T03:49:42.571Z,5.71
2023-04-04T03:52:17.937Z,5.68
2023-04-04T03:54:58.260Z,5.68
2023-04-04T03:57:33.033Z,5.73
2023-04-04T04:00:10.477Z,5.77
2023-04-04T04:02:45.760Z,5.82
2023-04-04T04:05:39.206Z,5.83
2023-04-04T04:08:28.971Z,5.84
2023-04-04T04:11:10.379Z,5.87
2023-04-04T04:13:43.479Z,5.90
2023-04-04T04:16:29.068Z,5.91
2023-04-04T04:19:05.912Z,5.89
2023-04-04T04:22:02.033Z,5.88
2023-04-04T04:24:34.586Z,5.89
2023-04-04T04:27:09.909Z,5.86
2023-04-04T04:29:52.428Z,5.89
2023-04-04T04:32:24.135Z,5.94
2023-04-04T04:34:55.582Z,5.97
2023-04-04T04:40:16.837Z,6.04
2023-04-04T04:43:19.900Z,6.06
2023-04-04T04:46:18.132Z,6.05
2023-04-04T04:48:52.758Z,6.09
2023-04-04T04:51:51.490Z,6.10
2023-04-04T04:54:25.516Z,6.08
2023-04-04T04:57:02.453Z,6.05
2023-04-04T04:59:34.772Z,6.02
2023-04-04T05:05:10.973Z,5.92
2023-04-04T05:07:50.492Z,5.88
2023-04-04T05:10:26.508Z,5.88
2023-04-04T05:13:27.108Z,5.92
2023-04-04T05:16:01.090Z,5.98
2023-04-04T05:18:38.002Z,6.01
2023-04-04T05:21:14.155Z,6.03
2023-04-04T05:23:49.265Z,6.07
2023-04-04T05:26:28.258Z,6.15
2023-04-04T05:32:41.333Z,6.16
2023-04-04T05:38:08.323Z,6.06
2023-04-04T05:41:59.786Z,6.13
2023-04-04T05:44:37.706Z,6.27
2023-04-04T05:47:32.138Z,6.34
2023-04-04T05:50:07.743Z,6.36
2023-04-04T05:52:46.528Z,6.32
2023-04-04T05:55:20.714Z,6.28
2023-04-04T05:58:00.285Z,6.32
2023-04-04T06:00:44.416Z,6.33
2023-04-04T06:03:41.118Z,6.32
2023-04-04T06:06:18.892Z,6.32
2023-04-04T06:08:54.250Z,6.35
2023-04-04T06:11:56.677Z,6.45
2023-04-04T06:14:54.882Z,6.46
2023-04-04T06:17:35.065Z,6.41
2023-04-04T06:20:35.678Z,6.47
2023-04-04T06:23:07.292Z,6.58
2023-04-04T06:25:42.834Z,6.60
2023-04-04T06:28:20.152Z,6.62
2023-04-04T06:31:29.451Z,6.55
2023-04-04T06:35:06.527Z,6.49
2023-04-04T06:37:58.170Z,6.49
2023-04-04T06:40:59.020Z,6.54
2023-04-04T06:44:04.816Z,6.48
2023-04-04T06:47:02.076Z,6.44
2023-04-04T06:50:25.310Z,6.45
2023-04-04T06:53:48.308Z,6.56
2023-04-04T06:56:27.314Z,6.64
2023-04-04T06:59:13.827Z,6.71
2023-04-04T07:01:48.786Z,6.75
2023-04-04T07:04:22.423Z,6.82
2023-04-04T07:06:55.973Z,6.83
2023-04-04T07:09:38.609Z,6.85
2023-04-04T07:12:13.258Z,6.88
2023-04-04T07:14:53.690Z,6.87
2023-04-04T07:17:25.504Z,6.91
2023-04-04T07:20:10.626Z,6.95
2023-04-04T07:22:48.279Z,6.88
2023-04-04T07:25:32.502Z,6.83
2023-04-04T07:28:12.812Z,6.79
2023-04-04T07:31:03.642Z,6.76
2023-04-04T07:33:45.768Z,6.79
2023-04-04T07:36:19.779Z,6.85
2023-04-04T07:38:56.780Z,6.89
2023-04-04T07:41:36.200Z,6.88
2023-04-04T07:44:14.358Z,6.85
2023-04-04T07:46:58.715Z,6.88
2023-04-04T07:49:40.974Z,6.89
2023-04-04T07:52:15.517Z,6.90
2023-04-04T07:54:51.768Z,6.99
2023-04-04T07:57:31.294Z,7.02
2023-04-04T08:00:09.354Z,7.02
2023-04-04T08:03:15.088Z,7.07
2023-04-04T08:05:59.778Z,7.16
2023-04-04T08:08:30.373Z,7.20
2023-04-04T08:11:09.016Z,7.14
2023-04-04T08:13:47.904Z,7.08
2023-04-04T08:16:23.311Z,7.06
2023-04-04T08:19:04.459Z,7.14
2023-04-04T08:21:41.454Z,7.28
2023-04-04T08:24:18.612Z,7.35
2023-04-04T08:27:22.939Z,7.30
2023-04-04T08:30:00.969Z,7.29
2023-04-04T08:32:40.831Z,7.17
2023-04-04T08:35:15.575Z,7.19
2023-04-04T08:38:11.093Z,7.27
2023-04-04T08:40:40.487Z,7.30
2023-04-04T08:43:10.280Z,7.23
2023-04-04T08:45:39.391Z,7.16
2023-04-04T08:48:09.879Z,7.19
2023-04-04T08:50:40.045Z,7.25
2023-04-04T08:53:11.910Z,7.29
2023-04-04T08:55:41.445Z,7.36
2023-04-04T08:58:11.235Z,7.45
2023-04-04T09:00:43.574Z,7.54
2023-04-04T09:03:20.104Z,7.69
2023-04-04T09:05:49.972Z,7.81
2023-04-04T09:08:19.074Z,7.81
2023-04-04T09:10:48.383Z,7.84
2023-04-04T09:13:17.162Z,7.83
2023-04-04T09:15:52.501Z,7.93
2023-04-04T09:18:20.915Z,8.04
2023-04-04T09:20:54.318Z,8.17
2023-04-04T09:23:23.981Z,8.32
2023-04-04T09:26:03.964Z,8.43
2023-04-04T09:28:34.538Z,8.31
2023-04-04T09:31:06.353Z,8.19
2023-04-04T09:33:36.000Z,8.16
2023-04-04T09:36:10.490Z,8.16
2023-04-04T09:38:45.886Z,8.16
2023-04-04T09:41:16.149Z,8.09
2023-04-04T09:43:47.421Z,8.05
2023-04-04T09:46:19.507Z,8.11
2023-04-04T09:48:51.862Z,8.25
2023-04-04T09:51:20.427Z,8.40
2023-04-04T09:53:49.130Z,8.49
2023-04-04T09:56:19.890Z,8.57
2023-04-04T09:59:02.537Z,8.68
2023-04-04T10:01:34.417Z,8.75
2023-04-04T10:04:04.685Z,8.80
2023-04-04T10:06:33.381Z,8.90
2023-04-04T10:09:08.045Z,8.90
2023-04-04T10:11:38.957Z,8.83
2023-04-04T10:14:12.667Z,8.80
2023-04-04T10:16:45.718Z,8.84
2023-04-04T10:19:22.991Z,8.91
2023-04-04T10:21:52.196Z,8.92
2023-04-04T10:24:22.347Z,9.01
2023-04-04T10:26:55.803Z,9.04
2023-04-04T10:29:33.810Z,9.02
2023-04-04T10:48:01.775Z,8.38
2023-04-04T10:58:18.461Z,8.50
2023-04-04T11:01:12.978Z,8.63
2023-04-04T11:04:22.965Z,8.73
2023-04-04T11:07:09.822Z,8.93
2023-04-04T11:09:54.835Z,9.00
2023-04-04T11:12:34.920Z,8.97
2023-04-04T11:15:04.103Z,8.89
2023-04-04T11:18:28.885Z,8.90
2023-04-04T11:21:05.700Z,9.10
2023-04-04T11:23:48.915Z,9.14
2023-04-04T11:26:18.253Z,9.11
2023-04-04T11:28:49.043Z,9.14
2023-04-04T11:31:36.178Z,9.14
2023-04-04T11:34:12.360Z,9.04
2023-04-04T11:36:40.973Z,8.98
2023-04-04T11:39:38.048Z,8.97
2023-04-04T11:43:09.143Z,8.99
2023-04-04T11:45:47.733Z,9.10
2023-04-04T11:54:47.056Z,9.03
2023-04-04T11:57:21.646Z,9.05
2023-04-04T11:59:53.937Z,9.06
2023-04-04T12:02:26.956Z,9.10
2023-04-04T12:04:56.284Z,9.13
2023-04-04T12:07:28.522Z,9.14
2023-04-04T12:10:02.574Z,9.13
2023-04-04T12:12:30.791Z,9.11
2023-04-04T12:15:10.283Z,9.13
2023-04-04T12:17:45.240Z,9.17
2023-04-04T12:20:15.551Z,9.18
2023-04-04T12:22:44.077Z,9.21
2023-04-04T12:25:11.575Z,9.30
2023-04-04T12:27:44.630Z,9.38
2023-04-04T12:30:16.060Z,9.42
2023-04-04T12:32:44.632Z,9.35
2023-04-04T12:35:14.706Z,9.34
2023-04-04T12:37:59.313Z,9.29
2023-04-04T12:40:37.851Z,9.26
2023-04-04T12:43:09.313Z,9.25
2023-04-04T12:45:41.357Z,9.20
2023-04-04T12:48:14.357Z,9.14
2023-04-04T12:51:00.302Z,9.07
2023-04-04T12:53:30.361Z,9.01
2023-04-04T12:56:06.194Z,8.97
2023-04-04T12:58:36.102Z,8.96
2023-04-04T13:01:11.329Z,8.92
2023-04-04T13:03:43.075Z,8.95
2023-04-04T13:06:13.408Z,8.99
2023-04-04T13:08:56.055Z,8.96
2023-04-04T13:12:04.132Z,8.92
2023-04-04T13:14:57.161Z,8.84
2023-04-04T13:17:25.511Z,8.95
2023-04-04T13:19:58.518Z,8.98
2023-04-04T13:22:36.764Z,9.01
2023-04-04T13:25:05.063Z,9.06
2023-04-04T13:27:32.526Z,9.11
2023-04-04T13:30:00.786Z,9.16
2023-04-04T13:32:29.879Z,9.22
2023-04-04T13:34:58.057Z,9.30
2023-04-04T13:37:26.273Z,9.37
2023-04-04T13:39:54.075Z,9.35
2023-04-04T13:42:23.826Z,9.33
2023-04-04T13:47:20.228Z,9.09
2023-04-04T13:49:57.766Z,9.20
2023-04-04T13:52:28.587Z,9.12
2023-04-04T13:54:57.805Z,9.14
2023-04-04T13:57:27.579Z,9.13
2023-04-04T13:59:59.237Z,9.13
2023-04-04T14:02:28.987Z,9.13
2023-04-04T14:04:57.580Z,9.09
2023-04-04T14:07:26.111Z,9.05
2023-04-04T14:09:54.393Z,9.03
2023-04-04T14:12:23.055Z,8.98
2023-04-04T14:14:51.832Z,8.97
2023-04-04T14:17:24.684Z,8.92
2023-04-04T14:19:54.252Z,8.90
2023-04-04T14:22:23.042Z,8.91
2023-04-04T14:24:53.758Z,8.91
2023-04-04T14:27:22.387Z,8.92
2023-04-04T14:29:50.919Z,8.90
2023-04-04T14:32:19.496Z,8.88
2023-04-04T14:34:50.708Z,8.82
2023-04-04T14:37:19.410Z,8.73
2023-04-04T14:39:52.424Z,8.70
2023-04-04T14:45:28.755Z,8.74
2023-04-04T14:48:29.340Z,8.72
2023-04-04T15:07:44.989Z,8.59
2023-04-04T15:10:29.828Z,8.54
2023-04-04T15:16:34.207Z,8.46
2023-04-04T15:19:09.491Z,8.48
2023-04-04T15:21:57.318Z,8.47
2023-04-04T15:24:33.289Z,8.46
2023-04-04T15:27:22.767Z,8.46
2023-04-04T15:37:13.187Z,8.39
2023-04-04T15:40:12.253Z,8.35
2023-04-04T15:43:36.813Z,8.33
2023-04-04T15:46:40.606Z,8.30
2023-04-04T15:49:17.103Z,8.24
2023-04-04T15:52:08.145Z,8.21
2023-04-04T15:54:45.734Z,8.21
2023-04-04T15:57:25.715Z,8.20
2023-04-04T16:00:10.028Z,8.19
2023-04-04T16:02:46.995Z,8.19
2023-04-04T16:05:25.466Z,8.19
2023-04-04T16:07:56.698Z,8.21
2023-04-04T16:10:32.219Z,8.22
2023-04-04T16:13:05.701Z,8.23
2023-04-04T16:15:43.646Z,8.20
2023-04-04T16:18:39.414Z,8.20
2023-04-04T16:22:49.589Z,8.20
2023-04-04T16:25:28.089Z,8.19
2023-04-04T16:28:06.212Z,8.21
2023-04-04T16:30:55.635Z,8.24
2023-04-04T16:33:31.292Z,8.27
2023-04-04T16:36:12.797Z,8.27
2023-04-04T16:38:50.337Z,8.28
2023-04-04T16:41:25.540Z,8.26
2023-04-04T16:44:31.834Z,8.29
2023-04-04T16:47:15.601Z,8.30
2023-04-04T16:49:50.024Z,8.29
2023-04-04T16:52:27.696Z,8.30
2023-04-04T16:55:00.607Z,8.31
2023-04-04T16:58:02.797Z,8.31
2023-04-04T17:00:35.067Z,8.27
2023-04-04T17:03:11.363Z,8.26
2023-04-04T17:05:50.395Z,8.26
2023-04-04T17:08:43.800Z,8.27
2023-04-04T17:11:34.108Z,8.29
2023-04-04T17:14:35.804Z,8.28
2023-04-04T17:17:23.287Z,8.29
2023-04-04T17:20:49.012Z,8.33
2023-04-04T17:23:22.065Z,8.37
2023-04-04T17:26:01.205Z,8.36
2023-04-04T17:29:10.100Z,8.38
2023-04-04T17:32:43.182Z,8.41
2023-04-04T17:35:52.725Z,8.43
2023-04-04T17:38:42.473Z,8.44
2023-04-04T17:41:39.784Z,8.46
2023-04-04T17:44:12.183Z,8.49
2023-04-04T17:46:54.109Z,8.50
2023-04-04T17:49:59.181Z,8.52
2023-04-04T17:52:35.131Z,8.53
2023-04-04T17:55:11.608Z,8.56
2023-04-04T17:57:54.373Z,8.59
2023-04-04T18:00:41.672Z,8.60
2023-04-04T18:03:24.089Z,8.63
2023-04-04T18:06:07.612Z,8.65
2023-04-04T18:08:51.484Z,8.68
2023-04-04T18:11:46.932Z,8.69
2023-04-04T18:14:23.055Z,8.69
2023-04-04T18:17:31.880Z,8.68
2023-04-04T18:21:02.061Z,8.69
2023-04-04T18:23:39.046Z,8.65
2023-04-04T18:26:22.901Z,8.62
2023-04-04T18:29:20.802Z,8.61
2023-04-04T18:32:05.930Z,8.60
2023-04-04T18:35:14.721Z,8.57
2023-04-04T18:37:53.561Z,8.50
2023-04-04T18:41:39.905Z,8.41
2023-04-04T18:44:42.326Z,8.26
2023-04-04T18:47:44.271Z,8.17
2023-04-04T18:50:35.859Z,8.12
2023-04-04T18:53:09.123Z,8.06
2023-04-04T18:55:52.275Z,8.02
2023-04-04T18:58:42.724Z,7.97
2023-04-04T19:01:20.304Z,7.95
2023-04-04T19:04:30.806Z,7.93
2023-04-04T19:07:26.098Z,7.92
2023-04-04T19:10:10.591Z,7.91
2023-04-04T19:13:32.752Z,7.92
2023-04-04T19:16:19.773Z,7.94
2023-04-04T19:19:21.850Z,7.93
2023-04-04T19:22:10.720Z,7.99
2023-04-04T19:25:20.492Z,8.01
2023-04-04T19:28:22.100Z,8.06
2023-04-04T19:31:22.460Z,8.08
2023-04-04T19:34:15.151Z,8.11
2023-04-04T19:37:04.234Z,8.14
2023-04-04T19:40:01.401Z,8.14
2023-04-04T19:42:45.329Z,8.16
2023-04-04T19:45:44.702Z,8.17
2023-04-04T19:48:53.528Z,8.22
2023-04-04T19:51:52.478Z,8.23
2023-04-04T19:54:47.233Z,8.22
2023-04-04T19:57:22.698Z,8.22
2023-04-04T20:00:25.423Z,8.26
2023-04-04T20:03:26.402Z,8.29
2023-04-04T20:06:49.451Z,8.30
2023-04-04T20:09:40.097Z,8.32
2023-04-04T20:12:37.215Z,8.33
2023-04-04T20:19:51.609Z,8.37
2023-04-04T20:22:45.862Z,8.36
2023-04-04T20:25:47.643Z,8.36
2023-04-04T20:28:29.355Z,8.37
2023-04-04T20:31:35.189Z,8.36
2023-04-04T20:34:09.556Z,8.36
2023-04-04T20:36:41.015Z,8.32
2023-04-04T20:39:56.674Z,8.28
2023-04-04T20:42:37.339Z,8.27
2023-04-04T20:45:53.365Z,8.26
2023-04-04T20:48:39.532Z,8.27
2023-04-04T20:51:32.451Z,8.27
2023-04-04T20:54:06.818Z,8.28
2023-04-04T20:56:46.855Z,8.25
2023-04-04T20:59:53.298Z,8.24
2023-04-04T21:02:29.188Z,8.23
2023-04-04T21:05:42.202Z,8.22
2023-04-04T21:08:56.535Z,8.22
2023-04-04T21:11:41.399Z,8.20
2023-04-04T21:14:47.608Z,8.13
2023-04-04T21:17:32.143Z,8.04
2023-04-04T21:20:40.117Z,7.95
2023-04-04T21:23:46.579Z,7.88
2023-04-04T21:27:08.773Z,7.82
2023-04-04T21:34:53.077Z,7.70
2023-04-04T21:37:53.847Z,7.65
2023-04-04T21:41:02.458Z,7.65
2023-04-04T21:43:49.893Z,7.64
2023-04-04T21:46:52.838Z,7.63
2023-04-04T21:49:50.506Z,7.61
2023-04-04T21:52:26.609Z,7.62
2023-04-04T21:55:19.847Z,7.61
2023-04-04T21:57:59.727Z,7.61
2023-04-04T22:00:39.733Z,7.60
2023-04-04T22:03:16.866Z,7.61
2023-04-04T22:05:57.613Z,7.60
2023-04-04T22:08:48.434Z,7.59
2023-04-04T22:11:53.402Z,7.60
2023-04-04T22:14:32.586Z,7.60
2023-04-04T22:17:23.209Z,7.60
2023-04-04T22:20:20.613Z,7.61
2023-04-04T22:23:39.549Z,7.60
2023-04-04T22:26:20.609Z,7.61
2023-04-04T22:29:14.592Z,7.60
2023-04-04T22:32:00.247Z,7.57
2023-04-04T22:35:01.045Z,7.57
2023-04-04T22:37:39.334Z,7.57
2023-04-04T22:40:13.977Z,7.53
2023-04-04T22:42:56.874Z,7.50
2023-04-04T22:45:40.690Z,7.50
2023-04-04T22:48:14.242Z,7.50
2023-04-04T22:50:58.928Z,7.50
2023-04-04T22:53:43.228Z,7.49
2023-04-04T22:56:31.461Z,7.53
2023-04-04T22:59:13.711Z,7.52
2023-04-04T23:02:06.471Z,7.50
2023-04-04T23:04:48.265Z,7.47
2023-04-04T23:07:32.000Z,7.45
2023-04-04T23:10:13.737Z,7.41
2023-04-04T23:12:53.240Z,7.39
2023-04-04T23:15:28.118Z,7.37
2023-04-04T23:18:12.089Z,7.37
2023-04-04T23:20:43.101Z,7.36
2023-04-04T23:23:19.899Z,7.37
2023-04-04T23:25:53.153Z,7.39
2023-04-04T23:28:24.502Z,7.42
2023-04-04T23:30:57.509Z,7.45
2023-04-04T23:33:39.593Z,7.49
2023-04-04T23:36:23.543Z,7.51
2023-04-04T23:38:59.257Z,7.52
2023-04-04T23:41:30.588Z,7.51
2023-04-04T23:44:00.444Z,7.51
2023-04-04T23:46:32.928Z,7.52
2023-04-04T23:49:06.377Z,7.54
2023-04-04T23:51:57.500Z,7.56
2023-04-04T23:54:30.242Z,7.56
2023-04-04T23:57:07.294Z,7.55
2023-04-04T23:59:39.535Z,7.55
